createdAt,value
2019-05-14T00:00:42.091Z,5.55
2019-05-14T00:03:15.336Z,5.60
2019-05-14T00:05:48.267Z,5.59
2019-05-14T00:08:22.213Z,5.56
2019-05-14T00:10:55.879Z,5.57
2019-05-14T00:13:28.556Z,5.55
2019-05-14T00:16:01.551Z,5.59
2019-05-14T00:18:34.217Z,5.72
2019-05-14T00:21:07.219Z,5.82
2019-05-14T00:23:41.902Z,5.92
2019-05-14T00:26:14.206Z,6.10
2019-05-14T00:28:46.760Z,6.23
2019-05-14T00:31:21.307Z,6.39
2019-05-14T00:33:53.679Z,6.43
2019-05-14T00:36:26.349Z,6.46
2019-05-14T00:38:58.918Z,6.48
2019-05-14T00:41:31.607Z,6.46
2019-05-14T00:44:03.811Z,6.43
2019-05-14T00:46:36.653Z,6.39
2019-05-14T00:49:11.743Z,6.33
2019-05-14T00:51:43.321Z,6.31
2019-05-14T00:54:16.638Z,6.28
2019-05-14T00:56:52.135Z,6.19
2019-05-14T00:59:24.656Z,6.13
2019-05-14T01:01:57.548Z,6.09
2019-05-14T01:04:31.699Z,6.03
2019-05-14T01:07:04.753Z,5.92
2019-05-14T01:09:37.530Z,5.79
2019-05-14T01:12:11.924Z,5.73
2019-05-14T01:14:44.005Z,5.64
2019-05-14T01:17:16.785Z,5.56
2019-05-14T01:19:51.350Z,5.45
2019-05-14T01:22:24.603Z,5.38
2019-05-14T01:24:57.191Z,5.29
2019-05-14T01:27:31.759Z,5.19
2019-05-14T01:30:04.392Z,5.10
2019-05-14T01:32:37.062Z,5.01
2019-05-14T01:35:12.021Z,4.91
2019-05-14T01:37:45.094Z,4.84
2019-05-14T01:40:17.770Z,4.82
2019-05-14T01:42:52.199Z,4.74
2019-05-14T01:45:28.248Z,4.69
2019-05-14T01:47:58.575Z,4.62
2019-05-14T01:50:32.280Z,4.58
2019-05-14T01:53:05.263Z,4.52
2019-05-14T01:55:37.823Z,4.47
2019-05-14T01:58:11.642Z,4.40
2019-05-14T02:00:44.424Z,4.34
2019-05-14T02:03:17.093Z,4.30
2019-05-14T02:05:51.868Z,4.29
2019-05-14T02:08:23.891Z,4.25
2019-05-14T02:10:56.559Z,4.20
2019-05-14T02:13:28.831Z,4.17
2019-05-14T02:16:02.268Z,4.11
2019-05-14T02:18:35.532Z,4.08
2019-05-14T02:21:08.305Z,4.05
2019-05-14T02:23:42.194Z,4.01
2019-05-14T02:26:14.787Z,3.99
2019-05-14T02:28:47.569Z,3.97
2019-05-14T02:31:20.558Z,3.95
2019-05-14T02:33:53.548Z,3.92
2019-05-14T02:36:26.227Z,3.90
2019-05-14T02:39:00.384Z,3.89
2019-05-14T02:41:35.065Z,3.85
2019-05-14T02:44:09.925Z,3.81
2019-05-14T02:46:42.070Z,3.76
2019-05-14T02:49:19.251Z,3.72
2019-05-14T02:51:50.743Z,3.69
2019-05-14T02:54:23.480Z,3.68
2019-05-14T02:56:56.269Z,3.65
2019-05-14T02:59:30.539Z,3.64
2019-05-14T03:02:03.152Z,3.62
2019-05-14T03:04:39.143Z,3.62
2019-05-14T03:07:11.318Z,3.60
2019-05-14T03:09:43.978Z,3.63
2019-05-14T03:12:19.223Z,3.63
2019-05-14T03:14:51.466Z,3.62
2019-05-14T03:17:24.296Z,3.62
2019-05-14T03:19:59.960Z,3.61
2019-05-14T03:22:43.343Z,3.63
2019-05-14T03:25:06.375Z,3.63
2019-05-14T03:27:40.551Z,3.63
2019-05-14T03:30:14.350Z,3.69
2019-05-14T03:32:52.059Z,3.70
2019-05-14T03:35:24.237Z,3.75
2019-05-14T03:37:55.112Z,3.77
2019-05-14T03:40:29.347Z,3.80
2019-05-14T03:43:02.503Z,3.86
2019-05-14T03:45:35.302Z,3.94
2019-05-14T03:48:10.335Z,4.08
2019-05-14T03:50:42.697Z,4.15
2019-05-14T03:53:15.418Z,4.19
2019-05-14T03:55:50.372Z,4.20
2019-05-14T03:58:22.481Z,4.24
2019-05-14T04:01:00.276Z,4.21
2019-05-14T04:03:33.877Z,4.21
2019-05-14T04:06:10.104Z,4.31
2019-05-14T04:08:44.452Z,4.35
2019-05-14T04:11:20.188Z,4.44
2019-05-14T04:13:54.322Z,4.51
2019-05-14T04:16:29.974Z,4.60
2019-05-14T04:19:03.906Z,4.67
2019-05-14T04:21:40.007Z,4.67
2019-05-14T04:24:15.093Z,4.77
2019-05-14T04:27:02.173Z,4.97
2019-05-14T04:29:30.545Z,5.16
2019-05-14T04:32:04.805Z,5.10
2019-05-14T04:34:39.765Z,5.22
2019-05-14T04:37:13.829Z,5.33
2019-05-14T04:39:49.880Z,5.40
2019-05-14T04:42:21.153Z,5.57
2019-05-14T04:44:53.925Z,5.64
2019-05-14T04:47:33.497Z,5.70
2019-05-14T04:50:01.753Z,5.87
2019-05-14T04:52:35.432Z,6.00
2019-05-14T04:55:09.966Z,5.98
2019-05-14T04:57:50.063Z,6.11
2019-05-14T05:00:23.150Z,6.35
2019-05-14T05:02:59.771Z,6.37
2019-05-14T05:05:30.699Z,6.54
2019-05-14T05:08:02.968Z,6.42
2019-05-14T05:10:39.773Z,6.54
2019-05-14T05:13:11.297Z,6.69
2019-05-14T05:15:43.976Z,6.77
2019-05-14T05:18:18.569Z,6.86
2019-05-14T05:20:50.881Z,6.94
2019-05-14T05:23:23.907Z,7.00
2019-05-14T05:25:58.551Z,7.04
2019-05-14T05:28:30.606Z,7.07
2019-05-14T05:31:03.327Z,7.30
2019-05-14T05:33:38.230Z,7.42
2019-05-14T05:36:10.232Z,7.43
2019-05-14T05:38:42.899Z,7.30
2019-05-14T05:41:15.774Z,7.34
2019-05-14T05:43:48.621Z,7.45
2019-05-14T05:46:21.559Z,7.66
2019-05-14T05:48:54.442Z,7.57
2019-05-14T05:51:28.832Z,7.48
2019-05-14T05:54:01.425Z,7.66
2019-05-14T05:56:34.117Z,7.84
2019-05-14T05:59:09.264Z,7.89
2019-05-14T06:01:46.317Z,7.97
2019-05-14T06:04:18.188Z,7.89
2019-05-14T06:06:50.550Z,8.13
2019-05-14T06:09:22.978Z,8.17
2019-05-14T06:11:56.427Z,8.17
2019-05-14T06:14:30.540Z,8.17
2019-05-14T06:17:03.643Z,7.87
2019-05-14T06:19:38.161Z,7.83
2019-05-14T06:22:11.202Z,7.74
2019-05-14T06:24:43.814Z,7.67
2019-05-14T06:27:18.204Z,7.64
2019-05-14T06:29:50.817Z,7.59
2019-05-14T06:32:23.499Z,7.70
2019-05-14T06:34:56.085Z,7.67
2019-05-14T06:37:30.226Z,7.56
2019-05-14T06:40:03.680Z,7.52
2019-05-14T06:42:36.354Z,7.42
2019-05-14T06:45:09.195Z,7.43
2019-05-14T06:47:43.054Z,7.44
2019-05-14T06:50:15.632Z,7.53
2019-05-14T06:52:49.199Z,7.56
2019-05-14T06:55:22.112Z,7.55
2019-05-14T06:57:54.794Z,7.58
2019-05-14T07:00:28.521Z,7.56
2019-05-14T07:03:01.679Z,7.54
2019-05-14T07:05:34.358Z,7.53
2019-05-14T07:08:08.956Z,7.54
2019-05-14T07:10:41.352Z,7.71
2019-05-14T07:13:14.041Z,7.82
2019-05-14T07:15:48.733Z,7.89
2019-05-14T07:18:21.032Z,7.91
2019-05-14T07:20:53.801Z,7.83
2019-05-14T07:23:28.755Z,7.85
2019-05-14T07:26:00.806Z,7.88
2019-05-14T07:28:33.500Z,7.83
2019-05-14T07:31:06.196Z,7.70
2019-05-14T07:33:39.119Z,7.68
2019-05-14T07:36:11.929Z,7.74
2019-05-14T07:38:44.608Z,7.73
2019-05-14T07:41:19.355Z,7.89
2019-05-14T07:43:51.581Z,7.65
2019-05-14T07:46:24.197Z,7.56
2019-05-14T07:49:07.207Z,7.54
2019-05-14T07:51:30.687Z,7.53
2019-05-14T07:54:04.474Z,7.49
2019-05-14T07:56:38.474Z,7.43
2019-05-14T07:59:11.385Z,7.41
2019-05-14T08:01:43.955Z,7.44
2019-05-14T08:04:19.476Z,7.52
2019-05-14T08:06:52.476Z,7.60
2019-05-14T08:09:28.280Z,7.42
2019-05-14T08:12:02.339Z,7.48
2019-05-14T08:14:53.162Z,7.45
2019-05-14T08:17:10.665Z,7.46
2019-05-14T08:19:44.688Z,7.40
2019-05-14T08:22:18.609Z,7.43
2019-05-14T08:24:51.364Z,7.56
2019-05-14T08:27:27.977Z,7.57
2019-05-14T08:29:58.943Z,7.54
2019-05-14T08:32:31.707Z,7.66
2019-05-14T08:35:05.366Z,7.70
2019-05-14T08:37:38.894Z,7.86
2019-05-14T08:40:16.534Z,7.91
2019-05-14T08:42:48.882Z,7.98
2019-05-14T08:45:21.306Z,8.04
2019-05-14T08:47:53.990Z,8.25
2019-05-14T08:50:28.082Z,8.54
2019-05-14T08:53:00.872Z,8.69
2019-05-14T08:55:33.561Z,8.85
2019-05-14T08:58:12.743Z,8.92
2019-05-14T09:00:40.753Z,8.97
2019-05-14T09:03:13.637Z,9.22
2019-05-14T09:05:46.328Z,9.25
2019-05-14T09:08:19.334Z,9.36
2019-05-14T09:10:51.787Z,9.52
2019-05-14T09:13:24.013Z,9.61
2019-05-14T09:15:58.221Z,9.88
2019-05-14T09:18:31.163Z,9.94
2019-05-14T09:21:04.031Z,10.82
2019-05-14T09:23:39.228Z,10.97
2019-05-14T09:26:11.546Z,11.04
2019-05-14T09:28:44.233Z,10.57
2019-05-14T09:31:19.067Z,10.78
2019-05-14T09:33:51.330Z,10.49
2019-05-14T09:36:24.464Z,10.39
2019-05-14T09:38:58.622Z,10.51
2019-05-14T09:41:31.323Z,10.96
2019-05-14T09:44:04.294Z,11.07
2019-05-14T09:46:38.471Z,10.95
2019-05-14T09:49:12.303Z,11.19
2019-05-14T09:51:44.982Z,11.41
2019-05-14T09:54:19.301Z,11.58
2019-05-14T09:56:52.195Z,11.91
2019-05-14T09:59:24.870Z,12.88
2019-05-14T10:01:58.594Z,13.59
2019-05-14T10:04:31.303Z,12.98
2019-05-14T10:07:03.933Z,12.41
2019-05-14T10:09:39.151Z,12.56
2019-05-14T10:12:11.710Z,12.38
2019-05-14T10:14:44.296Z,12.40
2019-05-14T10:17:19.343Z,13.11
2019-05-14T10:19:52.460Z,13.21
2019-05-14T10:22:25.120Z,12.44
2019-05-14T10:24:58.240Z,12.39
2019-05-14T10:27:30.989Z,12.63
2019-05-14T10:30:04.187Z,12.44
2019-05-14T10:32:40.635Z,13.63
2019-05-14T10:35:11.642Z,13.36
2019-05-14T10:37:44.366Z,13.57
2019-05-14T10:40:18.434Z,13.69
2019-05-14T10:42:51.936Z,12.96
2019-05-14T10:45:24.560Z,12.83
2019-05-14T10:47:58.614Z,12.89
2019-05-14T10:50:31.775Z,12.52
2019-05-14T10:53:04.964Z,12.15
2019-05-14T10:55:38.630Z,12.22
2019-05-14T10:58:11.759Z,12.29
2019-05-14T11:00:44.438Z,12.06
2019-05-14T11:03:18.620Z,12.14
2019-05-14T11:05:51.624Z,12.34
2019-05-14T11:08:24.307Z,13.82
2019-05-14T11:11:03.174Z,13.74
2019-05-14T11:13:31.338Z,13.47
2019-05-14T11:16:03.940Z,13.35
2019-05-14T11:18:39.598Z,12.95
2019-05-14T11:21:25.619Z,12.88
2019-05-14T11:23:45.193Z,13.08
2019-05-14T11:26:18.496Z,13.38
2019-05-14T11:28:51.585Z,13.65
2019-05-14T11:31:24.022Z,13.64
2019-05-14T11:33:58.875Z,13.63
2019-05-14T11:36:32.275Z,13.56
2019-05-14T11:39:09.076Z,13.85
2019-05-14T11:41:40.580Z,14.56
2019-05-14T11:44:13.292Z,14.88
2019-05-14T11:46:52.334Z,16.01
2019-05-14T11:49:20.287Z,16.29
2019-05-14T11:52:04.113Z,15.65
2019-05-14T11:54:29.244Z,15.29
2019-05-14T11:57:01.390Z,14.96
2019-05-14T11:59:33.999Z,14.71
2019-05-14T12:02:06.327Z,14.36
2019-05-14T12:04:39.283Z,14.17
2019-05-14T12:07:12.117Z,14.71
2019-05-14T12:09:44.789Z,14.49
2019-05-14T12:12:18.979Z,13.98
2019-05-14T12:14:51.792Z,13.94
2019-05-14T12:17:24.375Z,14.86
2019-05-14T12:19:59.389Z,15.96
2019-05-14T12:22:31.673Z,16.63
2019-05-14T12:25:04.353Z,16.68
2019-05-14T12:27:38.821Z,15.43
2019-05-14T12:30:13.904Z,15.58
2019-05-14T12:32:49.784Z,15.19
2019-05-14T12:35:20.483Z,14.81
2019-05-14T12:37:53.070Z,15.69
2019-05-14T12:40:28.655Z,16.67
2019-05-14T12:42:59.866Z,15.87
2019-05-14T12:45:32.791Z,15.17
2019-05-14T12:48:05.418Z,15.23
2019-05-14T12:50:39.198Z,16.53
2019-05-14T12:53:12.318Z,17.32
2019-05-14T12:55:44.595Z,17.75
2019-05-14T12:58:20.235Z,17.09
2019-05-14T13:00:51.620Z,16.89
2019-05-14T13:03:24.257Z,16.38
2019-05-14T13:05:58.509Z,17.67
2019-05-14T13:08:31.133Z,15.89
2019-05-14T13:11:03.832Z,14.60
2019-05-14T13:13:42.206Z,14.26
2019-05-14T13:16:10.840Z,14.48
2019-05-14T13:18:43.517Z,16.05
2019-05-14T13:21:16.189Z,15.56
2019-05-14T13:23:48.914Z,15.37
2019-05-14T13:26:21.558Z,15.44
2019-05-14T13:28:54.245Z,15.48
2019-05-14T13:31:29.245Z,15.70
2019-05-14T13:34:01.220Z,15.10
2019-05-14T13:36:34.015Z,15.87
2019-05-14T13:39:09.244Z,16.40
2019-05-14T13:41:42.279Z,15.65
2019-05-14T13:44:21.324Z,15.00
2019-05-14T13:46:48.846Z,14.57
2019-05-14T13:49:21.611Z,14.69
2019-05-14T13:51:54.280Z,14.75
2019-05-14T13:54:31.672Z,14.70
2019-05-14T13:57:02.012Z,14.46
2019-05-14T13:59:34.247Z,14.35
2019-05-14T14:02:09.841Z,14.47
2019-05-14T14:04:41.155Z,14.27
2019-05-14T14:07:15.070Z,15.75
2019-05-14T14:09:49.895Z,17.16
2019-05-14T14:12:25.104Z,17.57
2019-05-14T14:14:58.463Z,17.71
2019-05-14T14:17:30.809Z,16.70
2019-05-14T14:20:03.686Z,17.65
2019-05-14T14:22:40.080Z,18.52
2019-05-14T14:25:11.559Z,19.04
2019-05-14T14:27:44.597Z,18.15
2019-05-14T14:30:19.415Z,16.00
2019-05-14T14:32:52.807Z,17.34
2019-05-14T14:35:25.413Z,18.24
2019-05-14T14:37:59.190Z,18.75
2019-05-14T14:40:32.073Z,18.79
2019-05-14T14:43:04.760Z,18.33
2019-05-14T14:45:44.745Z,17.32
2019-05-14T14:48:12.820Z,16.81
2019-05-14T14:50:45.492Z,17.72
2019-05-14T14:53:20.135Z,17.93
2019-05-14T14:55:52.455Z,17.53
2019-05-14T14:58:25.138Z,18.15
2019-05-14T15:00:59.447Z,18.39
2019-05-14T15:03:31.735Z,16.92
2019-05-14T15:06:04.724Z,16.20
2019-05-14T15:08:38.881Z,16.05
2019-05-14T15:11:13.890Z,17.05
2019-05-14T15:13:48.314Z,18.53
2019-05-14T15:16:21.130Z,17.58
2019-05-14T15:18:54.139Z,18.03
2019-05-14T15:21:29.704Z,17.87
2019-05-14T15:24:10.661Z,19.24
2019-05-14T15:26:36.250Z,16.68
2019-05-14T15:29:09.949Z,15.87
2019-05-14T15:31:42.869Z,16.00
2019-05-14T15:34:19.008Z,16.31
2019-05-14T15:36:51.394Z,15.98
2019-05-14T15:39:24.319Z,15.67
2019-05-14T15:42:03.909Z,15.16
2019-05-14T15:44:47.260Z,15.24
2019-05-14T15:47:11.175Z,14.55
2019-05-14T15:49:41.862Z,14.28
2019-05-14T15:52:14.560Z,14.22
2019-05-14T15:54:50.321Z,14.28
2019-05-14T15:57:21.538Z,14.09
2019-05-14T15:59:54.223Z,16.18
2019-05-14T16:02:29.729Z,15.50
2019-05-14T16:05:01.424Z,18.06
2019-05-14T16:07:34.202Z,15.76
2019-05-14T16:10:08.597Z,15.24
2019-05-14T16:12:41.631Z,14.93
2019-05-14T16:15:15.010Z,15.03
2019-05-14T16:18:03.265Z,14.80
2019-05-14T16:20:21.597Z,14.31
2019-05-14T16:22:54.271Z,13.93
2019-05-14T16:25:28.637Z,13.78
2019-05-14T16:28:01.679Z,13.56
2019-05-14T16:30:34.013Z,13.63
2019-05-14T16:33:09.143Z,13.55
2019-05-14T16:35:41.652Z,13.56
2019-05-14T16:38:14.338Z,13.30
2019-05-14T16:40:48.976Z,13.31
2019-05-14T16:43:21.269Z,13.21
2019-05-14T16:45:53.911Z,13.15
2019-05-14T16:48:28.868Z,13.39
2019-05-14T16:51:00.804Z,13.65
2019-05-14T16:53:33.478Z,13.42
2019-05-14T16:56:08.199Z,13.42
2019-05-14T16:58:40.482Z,13.54
2019-05-14T17:01:13.054Z,14.60
2019-05-14T17:03:45.737Z,15.64
2019-05-14T17:06:18.941Z,15.49
2019-05-14T17:08:51.920Z,15.92
2019-05-14T17:11:24.613Z,14.93
2019-05-14T17:13:58.037Z,14.55
2019-05-14T17:16:33.369Z,13.48
2019-05-14T17:19:05.996Z,12.84
2019-05-14T17:21:39.137Z,12.44
2019-05-14T17:24:11.986Z,12.37
2019-05-14T17:26:46.145Z,12.13
2019-05-14T17:29:19.228Z,12.13
2019-05-14T17:31:51.707Z,12.07
2019-05-14T17:34:24.478Z,11.78
2019-05-14T17:36:59.365Z,11.73
2019-05-14T17:39:31.736Z,11.55
2019-05-14T17:42:04.711Z,11.56
2019-05-14T17:44:38.868Z,11.35
2019-05-14T17:47:11.271Z,11.29
2019-05-14T17:49:43.998Z,11.26
2019-05-14T17:52:21.890Z,11.21
2019-05-14T17:54:51.085Z,11.15
2019-05-14T17:57:25.559Z,11.03
2019-05-14T17:59:58.425Z,10.99
2019-05-14T18:02:31.388Z,10.93
2019-05-14T18:05:04.068Z,10.87
2019-05-14T18:07:36.790Z,10.81
2019-05-14T18:10:10.653Z,10.80
2019-05-14T18:12:43.331Z,10.71
2019-05-14T18:15:16.411Z,10.66
2019-05-14T18:17:49.583Z,10.63
2019-05-14T18:20:22.595Z,10.59
2019-05-14T18:22:58.280Z,10.56
2019-05-14T18:25:32.450Z,10.55
2019-05-14T18:28:05.140Z,10.52
2019-05-14T18:30:38.698Z,10.49
2019-05-14T18:33:12.867Z,10.45
2019-05-14T18:35:47.497Z,10.40
2019-05-14T18:38:19.735Z,10.39
2019-05-14T18:40:51.999Z,10.33
2019-05-14T18:43:24.591Z,10.29
2019-05-14T18:45:58.691Z,10.26
2019-05-14T18:48:31.642Z,10.23
2019-05-14T18:51:04.357Z,10.22
2019-05-14T18:53:38.448Z,10.18
2019-05-14T18:56:20.337Z,10.19
2019-05-14T18:58:45.109Z,10.13
2019-05-14T19:01:19.618Z,10.07
2019-05-14T19:03:52.583Z,10.06
2019-05-14T19:06:25.204Z,10.04
2019-05-14T19:08:57.836Z,10.00
2019-05-14T19:11:30.504Z,10.02
2019-05-14T19:14:03.171Z,9.98
2019-05-14T19:16:44.906Z,9.93
2019-05-14T19:19:20.764Z,9.90
2019-05-14T19:21:53.823Z,9.88
2019-05-14T19:24:28.493Z,9.87
2019-05-14T19:27:00.708Z,9.79
2019-05-14T19:29:33.283Z,9.77
2019-05-14T19:32:08.119Z,9.76
2019-05-14T19:34:40.180Z,9.76
2019-05-14T19:37:12.857Z,9.70
2019-05-14T19:39:45.434Z,9.65
2019-05-14T19:42:18.367Z,9.63
2019-05-14T19:44:52.535Z,9.63
2019-05-14T19:47:25.173Z,9.57
2019-05-14T19:49:58.157Z,9.52
2019-05-14T19:52:30.981Z,9.50
2019-05-14T19:55:03.776Z,9.48
2019-05-14T19:57:41.020Z,9.45
2019-05-14T20:00:14.341Z,9.40
2019-05-14T20:02:48.689Z,9.38
2019-05-14T20:05:21.572Z,9.38
2019-05-14T20:07:54.234Z,9.34
2019-05-14T20:10:28.999Z,9.32
2019-05-14T20:13:01.171Z,9.29
2019-05-14T20:15:35.855Z,9.28
2019-05-14T20:18:08.943Z,9.23
2019-05-14T20:20:42.383Z,9.22
2019-05-14T20:23:15.454Z,9.24
2019-05-14T20:25:48.515Z,9.21
2019-05-14T20:28:22.417Z,9.20
2019-05-14T20:30:55.414Z,9.20
2019-05-14T20:33:30.049Z,9.17
2019-05-14T20:36:03.943Z,9.15
2019-05-14T20:38:38.594Z,9.16
2019-05-14T20:41:11.855Z,9.19
2019-05-14T20:43:47.851Z,9.15
2019-05-14T20:46:19.869Z,9.18
2019-05-14T20:48:52.572Z,9.16
2019-05-14T20:51:27.638Z,9.16
2019-05-14T20:54:01.092Z,9.14
2019-05-14T20:56:33.661Z,9.15
2019-05-14T20:59:08.241Z,9.11
2019-05-14T21:01:40.650Z,9.13
2019-05-14T21:04:13.452Z,9.09
2019-05-14T21:06:48.477Z,9.06
2019-05-14T21:09:20.328Z,9.01
2019-05-14T21:11:52.908Z,9.02
2019-05-14T21:14:25.611Z,8.98
2019-05-14T21:16:59.637Z,8.98
2019-05-14T21:19:32.275Z,8.98
2019-05-14T21:22:04.859Z,8.97
2019-05-14T21:24:39.289Z,8.95
2019-05-14T21:27:12.055Z,8.94
2019-05-14T21:29:44.737Z,8.93
2019-05-14T21:32:19.429Z,8.95
2019-05-14T21:34:51.636Z,8.93
2019-05-14T21:37:24.191Z,8.92
2019-05-14T21:39:58.301Z,8.92
2019-05-14T21:42:31.206Z,8.92
2019-05-14T21:45:06.780Z,8.89
2019-05-14T21:47:38.752Z,8.86
2019-05-14T21:50:12.111Z,8.84
2019-05-14T21:52:44.796Z,8.85
2019-05-14T21:55:19.634Z,8.81
2019-05-14T21:57:56.325Z,8.83
2019-05-14T22:00:33.983Z,8.81
2019-05-14T22:03:10.285Z,8.82
2019-05-14T22:05:42.611Z,8.79
2019-05-14T22:08:15.206Z,8.79
2019-05-14T22:10:48.865Z,8.79
2019-05-14T22:13:21.778Z,8.78
2019-05-14T22:15:54.465Z,8.74
2019-05-14T22:18:27.904Z,8.73
2019-05-14T22:21:00.752Z,8.71
2019-05-14T22:23:33.319Z,8.69
2019-05-14T22:26:05.697Z,8.68
2019-05-14T22:28:38.269Z,8.62
2019-05-14T22:31:10.955Z,8.62
2019-05-14T22:33:43.639Z,8.60
2019-05-14T22:36:20.864Z,8.59
2019-05-14T22:38:50.121Z,8.62
2019-05-14T22:41:22.796Z,8.57
2019-05-14T22:43:57.620Z,8.56
2019-05-14T22:46:29.671Z,8.56
2019-05-14T22:49:02.460Z,8.55
2019-05-14T22:51:35.154Z,8.55
2019-05-14T22:54:08.708Z,8.53
2019-05-14T22:56:41.625Z,8.55
2019-05-14T22:59:14.264Z,8.55
2019-05-14T23:01:48.047Z,8.49
2019-05-14T23:04:20.992Z,8.52
2019-05-14T23:06:53.672Z,8.47
2019-05-14T23:09:26.350Z,8.49
2019-05-14T23:11:59.071Z,8.47
2019-05-14T23:14:31.714Z,8.45
2019-05-14T23:17:04.502Z,8.46
2019-05-14T23:19:37.387Z,8.43
2019-05-14T23:22:10.006Z,8.38
2019-05-14T23:24:42.207Z,8.32
2019-05-14T23:27:14.795Z,8.32
2019-05-14T23:29:47.933Z,8.26
2019-05-14T23:32:20.780Z,8.21
2019-05-14T23:34:53.447Z,8.20
2019-05-14T23:37:26.244Z,8.20
2019-05-14T23:40:00.546Z,8.22
2019-05-14T23:42:33.227Z,8.14
2019-05-14T23:45:08.321Z,8.14
2019-05-14T23:47:41.050Z,8.14
2019-05-14T23:50:13.722Z,8.10
2019-05-14T23:52:49.067Z,8.07
2019-05-14T23:55:21.242Z,8.09
2019-05-14T23:57:55.033Z,8.09
